sensor_id;sensor_type;location;lat;lon;timestamp;P1;durP1;ratioP1;P2;durP2;ratioP2
77417;SDS011;66490;51.484;0.026;2023-05-07T00:02:20;15.63;;;9.02;;
77417;SDS011;66490;51.484;0.026;2023-05-07T00:05:04;16.25;;;9.50;;
77417;SDS011;66490;51.484;0.026;2023-05-07T00:07:48;14.30;;;8.40;;
77417;SDS011;66490;51.484;0.026;2023-05-07T00:10:32;15.07;;;8.23;;
77417;SDS011;66490;51.484;0.026;2023-05-07T00:13:16;12.60;;;8.20;;
77417;SDS011;66490;51.484;0.026;2023-05-07T00:16:01;14.90;;;7.47;;
77417;SDS011;66490;51.484;0.026;2023-05-07T00:18:45;13.25;;;8.15;;
77417;SDS011;66490;51.484;0.026;2023-05-07T00:21:29;12.65;;;7.63;;
77417;SDS011;66490;51.484;0.026;2023-05-07T00:24:14;13.05;;;7.63;;
77417;SDS011;66490;51.484;0.026;2023-05-07T00:26:58;14.30;;;5.93;;
77417;SDS011;66490;51.484;0.026;2023-05-07T00:29:42;11.00;;;5.90;;
77417;SDS011;66490;51.484;0.026;2023-05-07T00:32:26;9.38;;;5.20;;
77417;SDS011;66490;51.484;0.026;2023-05-07T00:35:10;13.13;;;5.88;;
77417;SDS011;66490;51.484;0.026;2023-05-07T00:37:54;9.80;;;4.47;;
77417;SDS011;66490;51.484;0.026;2023-05-07T00:40:37;8.70;;;3.80;;
77417;SDS011;66490;51.484;0.026;2023-05-07T00:43:21;9.98;;;4.30;;
77417;SDS011;66490;51.484;0.026;2023-05-07T00:46:05;6.63;;;3.58;;
77417;SDS011;66490;51.484;0.026;2023-05-07T00:48:50;7.13;;;3.97;;
77417;SDS011;66490;51.484;0.026;2023-05-07T00:51:37;6.93;;;3.63;;
77417;SDS011;66490;51.484;0.026;2023-05-07T00:54:21;8.93;;;4.13;;
77417;SDS011;66490;51.484;0.026;2023-05-07T00:57:05;6.55;;;3.03;;
77417;SDS011;66490;51.484;0.026;2023-05-07T00:59:53;7.38;;;3.13;;
77417;SDS011;66490;51.484;0.026;2023-05-07T01:02:41;7.18;;;3.28;;
77417;SDS011;66490;51.484;0.026;2023-05-07T01:05:25;9.93;;;3.83;;
77417;SDS011;66490;51.484;0.026;2023-05-07T01:08:09;7.27;;;3.50;;
77417;SDS011;66490;51.484;0.026;2023-05-07T01:10:55;6.45;;;3.20;;
77417;SDS011;66490;51.484;0.026;2023-05-07T01:13:40;8.45;;;4.00;;
77417;SDS011;66490;51.484;0.026;2023-05-07T01:16:24;7.50;;;3.45;;
77417;SDS011;66490;51.484;0.026;2023-05-07T01:19:09;8.90;;;4.60;;
77417;SDS011;66490;51.484;0.026;2023-05-07T01:21:54;8.30;;;4.10;;
77417;SDS011;66490;51.484;0.026;2023-05-07T01:24:47;10.68;;;5.28;;
77417;SDS011;66490;51.484;0.026;2023-05-07T01:27:32;8.90;;;4.72;;
77417;SDS011;66490;51.484;0.026;2023-05-07T01:30:17;10.15;;;4.28;;
77417;SDS011;66490;51.484;0.026;2023-05-07T01:33:09;9.15;;;4.63;;
77417;SDS011;66490;51.484;0.026;2023-05-07T01:35:54;8.20;;;4.20;;
77417;SDS011;66490;51.484;0.026;2023-05-07T01:38:39;8.43;;;4.45;;
77417;SDS011;66490;51.484;0.026;2023-05-07T01:41:23;9.27;;;4.75;;
77417;SDS011;66490;51.484;0.026;2023-05-07T01:44:08;8.18;;;4.15;;
77417;SDS011;66490;51.484;0.026;2023-05-07T01:46:53;8.70;;;5.22;;
77417;SDS011;66490;51.484;0.026;2023-05-07T01:49:38;11.03;;;4.00;;
77417;SDS011;66490;51.484;0.026;2023-05-07T01:52:23;12.13;;;5.28;;
77417;SDS011;66490;51.484;0.026;2023-05-07T01:55:08;11.40;;;5.35;;
77417;SDS011;66490;51.484;0.026;2023-05-07T01:57:52;10.50;;;5.50;;
77417;SDS011;66490;51.484;0.026;2023-05-07T02:00:36;12.25;;;5.97;;
77417;SDS011;66490;51.484;0.026;2023-05-07T02:03:20;10.87;;;5.37;;
77417;SDS011;66490;51.484;0.026;2023-05-07T02:06:05;11.35;;;5.55;;
77417;SDS011;66490;51.484;0.026;2023-05-07T02:08:52;13.18;;;7.28;;
77417;SDS011;66490;51.484;0.026;2023-05-07T02:11:36;12.05;;;5.60;;
77417;SDS011;66490;51.484;0.026;2023-05-07T02:14:20;12.15;;;6.57;;
77417;SDS011;66490;51.484;0.026;2023-05-07T02:17:04;11.87;;;6.10;;
77417;SDS011;66490;51.484;0.026;2023-05-07T02:19:48;11.93;;;5.65;;
77417;SDS011;66490;51.484;0.026;2023-05-07T02:22:32;12.77;;;6.10;;
77417;SDS011;66490;51.484;0.026;2023-05-07T02:25:16;11.68;;;6.72;;
77417;SDS011;66490;51.484;0.026;2023-05-07T02:28:03;11.77;;;6.78;;
77417;SDS011;66490;51.484;0.026;2023-05-07T02:30:47;11.57;;;6.67;;
77417;SDS011;66490;51.484;0.026;2023-05-07T02:33:31;11.23;;;6.40;;
77417;SDS011;66490;51.484;0.026;2023-05-07T02:36:15;11.57;;;6.38;;
77417;SDS011;66490;51.484;0.026;2023-05-07T02:39:00;13.95;;;7.57;;
77417;SDS011;66490;51.484;0.026;2023-05-07T02:41:44;13.00;;;7.55;;
77417;SDS011;66490;51.484;0.026;2023-05-07T02:44:28;14.07;;;6.77;;
77417;SDS011;66490;51.484;0.026;2023-05-07T02:47:14;15.27;;;8.00;;
77417;SDS011;66490;51.484;0.026;2023-05-07T02:49:59;14.55;;;7.13;;
77417;SDS011;66490;51.484;0.026;2023-05-07T02:52:42;12.07;;;7.32;;
77417;SDS011;66490;51.484;0.026;2023-05-07T02:55:27;11.95;;;7.50;;
77417;SDS011;66490;51.484;0.026;2023-05-07T02:58:11;12.00;;;6.73;;
77417;SDS011;66490;51.484;0.026;2023-05-07T03:00:55;13.13;;;8.35;;
77417;SDS011;66490;51.484;0.026;2023-05-07T03:03:39;12.00;;;7.80;;
77417;SDS011;66490;51.484;0.026;2023-05-07T03:06:24;13.50;;;7.05;;
77417;SDS011;66490;51.484;0.026;2023-05-07T03:09:08;14.07;;;8.00;;
77417;SDS011;66490;51.484;0.026;2023-05-07T03:11:52;15.83;;;7.67;;
77417;SDS011;66490;51.484;0.026;2023-05-07T03:14:36;15.10;;;8.20;;
77417;SDS011;66490;51.484;0.026;2023-05-07T03:17:21;13.55;;;7.90;;
77417;SDS011;66490;51.484;0.026;2023-05-07T03:20:05;15.27;;;8.52;;
77417;SDS011;66490;51.484;0.026;2023-05-07T03:22:49;12.43;;;8.13;;
77417;SDS011;66490;51.484;0.026;2023-05-07T03:25:34;12.40;;;7.73;;
77417;SDS011;66490;51.484;0.026;2023-05-07T03:28:18;15.73;;;8.23;;
77417;SDS011;66490;51.484;0.026;2023-05-07T03:31:02;14.88;;;8.52;;
77417;SDS011;66490;51.484;0.026;2023-05-07T03:33:56;12.43;;;8.40;;
77417;SDS011;66490;51.484;0.026;2023-05-07T03:36:40;15.80;;;8.80;;
77417;SDS011;66490;51.484;0.026;2023-05-07T03:39:24;14.47;;;8.03;;
77417;SDS011;66490;51.484;0.026;2023-05-07T03:42:08;16.17;;;7.60;;
77417;SDS011;66490;51.484;0.026;2023-05-07T03:44:52;14.77;;;8.32;;
77417;SDS011;66490;51.484;0.026;2023-05-07T03:47:36;14.10;;;8.43;;
77417;SDS011;66490;51.484;0.026;2023-05-07T03:50:20;14.40;;;8.35;;
77417;SDS011;66490;51.484;0.026;2023-05-07T03:53:04;14.00;;;7.97;;
77417;SDS011;66490;51.484;0.026;2023-05-07T03:55:48;14.65;;;8.38;;
77417;SDS011;66490;51.484;0.026;2023-05-07T03:58:32;14.00;;;7.40;;
77417;SDS011;66490;51.484;0.026;2023-05-07T04:01:16;14.68;;;8.02;;
77417;SDS011;66490;51.484;0.026;2023-05-07T04:04:00;14.48;;;7.63;;
77417;SDS011;66490;51.484;0.026;2023-05-07T04:06:48;14.97;;;7.33;;
77417;SDS011;66490;51.484;0.026;2023-05-07T04:09:31;13.25;;;7.20;;
77417;SDS011;66490;51.484;0.026;2023-05-07T04:12:15;14.10;;;7.18;;
77417;SDS011;66490;51.484;0.026;2023-05-07T04:14:59;13.55;;;7.20;;
77417;SDS011;66490;51.484;0.026;2023-05-07T04:17:43;12.77;;;7.25;;
77417;SDS011;66490;51.484;0.026;2023-05-07T04:20:27;15.20;;;8.03;;
77417;SDS011;66490;51.484;0.026;2023-05-07T04:23:11;15.60;;;7.85;;
77417;SDS011;66490;51.484;0.026;2023-05-07T04:25:58;15.60;;;8.02;;
77417;SDS011;66490;51.484;0.026;2023-05-07T04:28:42;15.40;;;7.82;;
77417;SDS011;66490;51.484;0.026;2023-05-07T04:31:26;12.82;;;6.28;;
77417;SDS011;66490;51.484;0.026;2023-05-07T04:34:11;14.67;;;7.83;;
77417;SDS011;66490;51.484;0.026;2023-05-07T04:36:57;16.13;;;8.48;;
77417;SDS011;66490;51.484;0.026;2023-05-07T04:39:41;12.68;;;7.88;;
77417;SDS011;66490;51.484;0.026;2023-05-07T04:42:25;14.68;;;8.57;;
77417;SDS011;66490;51.484;0.026;2023-05-07T04:45:09;15.15;;;8.77;;
77417;SDS011;66490;51.484;0.026;2023-05-07T04:47:54;16.17;;;9.90;;
77417;SDS011;66490;51.484;0.026;2023-05-07T04:50:38;16.17;;;8.68;;
77417;SDS011;66490;51.484;0.026;2023-05-07T04:53:22;16.00;;;8.38;;
77417;SDS011;66490;51.484;0.026;2023-05-07T04:56:06;12.95;;;7.00;;
77417;SDS011;66490;51.484;0.026;2023-05-07T04:58:56;14.30;;;7.78;;
77417;SDS011;66490;51.484;0.026;2023-05-07T05:01:40;15.13;;;8.20;;
77417;SDS011;66490;51.484;0.026;2023-05-07T05:04:24;15.82;;;8.15;;
77417;SDS011;66490;51.484;0.026;2023-05-07T05:07:09;15.80;;;7.88;;
77417;SDS011;66490;51.484;0.026;2023-05-07T05:09:53;15.52;;;8.40;;
77417;SDS011;66490;51.484;0.026;2023-05-07T05:12:37;16.30;;;8.50;;
77417;SDS011;66490;51.484;0.026;2023-05-07T05:15:21;17.93;;;8.60;;
77417;SDS011;66490;51.484;0.026;2023-05-07T05:18:05;16.00;;;9.38;;
77417;SDS011;66490;51.484;0.026;2023-05-07T05:20:50;16.73;;;8.60;;
77417;SDS011;66490;51.484;0.026;2023-05-07T05:23:35;15.30;;;8.18;;
77417;SDS011;66490;51.484;0.026;2023-05-07T05:26:22;16.42;;;7.88;;
77417;SDS011;66490;51.484;0.026;2023-05-07T05:29:06;14.73;;;7.90;;
77417;SDS011;66490;51.484;0.026;2023-05-07T05:31:51;15.20;;;7.82;;
77417;SDS011;66490;51.484;0.026;2023-05-07T05:34:35;14.50;;;7.80;;
77417;SDS011;66490;51.484;0.026;2023-05-07T05:37:19;15.30;;;7.05;;
77417;SDS011;66490;51.484;0.026;2023-05-07T05:40:04;16.85;;;8.23;;
77417;SDS011;66490;51.484;0.026;2023-05-07T05:42:48;17.43;;;8.23;;
77417;SDS011;66490;51.484;0.026;2023-05-07T05:45:32;16.83;;;8.63;;
77417;SDS011;66490;51.484;0.026;2023-05-07T05:48:16;17.02;;;8.57;;
77417;SDS011;66490;51.484;0.026;2023-05-07T05:51:00;15.82;;;8.52;;
77417;SDS011;66490;51.484;0.026;2023-05-07T05:53:44;16.15;;;9.30;;
77417;SDS011;66490;51.484;0.026;2023-05-07T05:56:31;18.87;;;8.33;;
77417;SDS011;66490;51.484;0.026;2023-05-07T05:59:15;20.55;;;8.50;;
77417;SDS011;66490;51.484;0.026;2023-05-07T06:01:59;16.45;;;8.27;;
77417;SDS011;66490;51.484;0.026;2023-05-07T06:04:43;18.27;;;8.60;;
77417;SDS011;66490;51.484;0.026;2023-05-07T06:07:27;17.10;;;8.18;;
77417;SDS011;66490;51.484;0.026;2023-05-07T06:10:11;18.13;;;7.50;;
77417;SDS011;66490;51.484;0.026;2023-05-07T06:12:55;14.15;;;7.32;;
77417;SDS011;66490;51.484;0.026;2023-05-07T06:15:41;16.90;;;9.05;;
77417;SDS011;66490;51.484;0.026;2023-05-07T06:18:25;15.80;;;7.65;;
77417;SDS011;66490;51.484;0.026;2023-05-07T06:21:09;16.27;;;7.85;;
77417;SDS011;66490;51.484;0.026;2023-05-07T06:23:54;14.23;;;7.27;;
77417;SDS011;66490;51.484;0.026;2023-05-07T06:26:38;16.17;;;7.97;;
77417;SDS011;66490;51.484;0.026;2023-05-07T06:29:23;16.88;;;8.40;;
77417;SDS011;66490;51.484;0.026;2023-05-07T06:32:10;16.27;;;7.88;;
77417;SDS011;66490;51.484;0.026;2023-05-07T06:34:54;15.52;;;7.95;;
77417;SDS011;66490;51.484;0.026;2023-05-07T06:37:40;19.70;;;8.70;;
77417;SDS011;66490;51.484;0.026;2023-05-07T06:40:26;15.68;;;8.15;;
77417;SDS011;66490;51.484;0.026;2023-05-07T06:43:10;15.05;;;7.18;;
77417;SDS011;66490;51.484;0.026;2023-05-07T06:45:54;15.18;;;7.82;;
77417;SDS011;66490;51.484;0.026;2023-05-07T06:48:38;13.88;;;7.18;;
77417;SDS011;66490;51.484;0.026;2023-05-07T06:51:22;15.23;;;6.93;;
77417;SDS011;66490;51.484;0.026;2023-05-07T06:54:06;13.52;;;7.35;;
77417;SDS011;66490;51.484;0.026;2023-05-07T06:56:51;15.00;;;8.18;;
77417;SDS011;66490;51.484;0.026;2023-05-07T06:59:35;13.90;;;6.93;;
77417;SDS011;66490;51.484;0.026;2023-05-07T07:02:19;16.90;;;8.68;;
77417;SDS011;66490;51.484;0.026;2023-05-07T07:05:03;16.13;;;7.80;;
77417;SDS011;66490;51.484;0.026;2023-05-07T07:07:47;15.35;;;7.70;;
77417;SDS011;66490;51.484;0.026;2023-05-07T07:10:36;12.35;;;7.40;;
77417;SDS011;66490;51.484;0.026;2023-05-07T07:13:20;15.23;;;6.63;;
77417;SDS011;66490;51.484;0.026;2023-05-07T07:16:04;11.48;;;6.85;;
77417;SDS011;66490;51.484;0.026;2023-05-07T07:18:48;12.97;;;6.43;;
77417;SDS011;66490;51.484;0.026;2023-05-07T07:21:32;14.52;;;6.80;;
77417;SDS011;66490;51.484;0.026;2023-05-07T07:24:16;15.15;;;7.82;;
77417;SDS011;66490;51.484;0.026;2023-05-07T07:27:04;12.98;;;5.70;;
77417;SDS011;66490;51.484;0.026;2023-05-07T07:29:49;13.55;;;7.63;;
77417;SDS011;66490;51.484;0.026;2023-05-07T07:32:33;11.13;;;6.13;;
77417;SDS011;66490;51.484;0.026;2023-05-07T07:35:18;14.20;;;6.72;;
77417;SDS011;66490;51.484;0.026;2023-05-07T07:38:01;10.65;;;5.93;;
77417;SDS011;66490;51.484;0.026;2023-05-07T07:40:47;13.80;;;6.68;;
77417;SDS011;66490;51.484;0.026;2023-05-07T07:43:31;12.63;;;6.63;;
77417;SDS011;66490;51.484;0.026;2023-05-07T07:46:15;13.27;;;6.03;;
77417;SDS011;66490;51.484;0.026;2023-05-07T07:48:59;14.55;;;8.25;;
77417;SDS011;66490;51.484;0.026;2023-05-07T07:51:46;12.63;;;7.18;;
77417;SDS011;66490;51.484;0.026;2023-05-07T07:54:29;12.40;;;6.32;;
77417;SDS011;66490;51.484;0.026;2023-05-07T07:57:13;13.98;;;8.02;;
77417;SDS011;66490;51.484;0.026;2023-05-07T07:59:57;14.73;;;7.60;;
77417;SDS011;66490;51.484;0.026;2023-05-07T08:02:42;12.20;;;6.85;;
77417;SDS011;66490;51.484;0.026;2023-05-07T08:05:26;13.90;;;7.10;;
77417;SDS011;66490;51.484;0.026;2023-05-07T08:08:10;14.40;;;7.63;;
77417;SDS011;66490;51.484;0.026;2023-05-07T08:10:54;13.88;;;7.65;;
77417;SDS011;66490;51.484;0.026;2023-05-07T08:13:38;12.97;;;6.07;;
77417;SDS011;66490;51.484;0.026;2023-05-07T08:16:22;13.00;;;6.72;;
77417;SDS011;66490;51.484;0.026;2023-05-07T08:19:07;12.38;;;6.82;;
77417;SDS011;66490;51.484;0.026;2023-05-07T08:21:51;12.23;;;6.57;;
77417;SDS011;66490;51.484;0.026;2023-05-07T08:24:35;10.45;;;5.45;;
77417;SDS011;66490;51.484;0.026;2023-05-07T08:27:19;12.40;;;5.63;;
77417;SDS011;66490;51.484;0.026;2023-05-07T08:30:03;13.65;;;6.75;;
77417;SDS011;66490;51.484;0.026;2023-05-07T08:32:47;12.63;;;6.47;;
77417;SDS011;66490;51.484;0.026;2023-05-07T08:35:31;12.57;;;6.63;;
77417;SDS011;66490;51.484;0.026;2023-05-07T08:38:15;10.50;;;6.15;;
77417;SDS011;66490;51.484;0.026;2023-05-07T08:40:59;11.17;;;5.67;;
77417;SDS011;66490;51.484;0.026;2023-05-07T08:43:49;11.50;;;5.97;;
77417;SDS011;66490;51.484;0.026;2023-05-07T08:46:33;11.32;;;6.22;;
77417;SDS011;66490;51.484;0.026;2023-05-07T08:49:18;10.48;;;5.68;;
77417;SDS011;66490;51.484;0.026;2023-05-07T08:52:11;9.82;;;5.18;;
77417;SDS011;66490;51.484;0.026;2023-05-07T08:54:56;8.97;;;5.17;;
77417;SDS011;66490;51.484;0.026;2023-05-07T08:57:40;8.55;;;4.03;;
77417;SDS011;66490;51.484;0.026;2023-05-07T09:00:24;9.80;;;4.70;;
77417;SDS011;66490;51.484;0.026;2023-05-07T09:03:09;8.07;;;4.28;;
77417;SDS011;66490;51.484;0.026;2023-05-07T09:05:56;10.63;;;5.45;;
77417;SDS011;66490;51.484;0.026;2023-05-07T09:08:40;11.53;;;5.67;;
77417;SDS011;66490;51.484;0.026;2023-05-07T09:11:24;10.82;;;5.60;;
77417;SDS011;66490;51.484;0.026;2023-05-07T09:14:09;9.60;;;4.95;;
77417;SDS011;66490;51.484;0.026;2023-05-07T09:16:55;8.90;;;5.35;;
77417;SDS011;66490;51.484;0.026;2023-05-07T09:19:40;10.77;;;5.88;;
77417;SDS011;66490;51.484;0.026;2023-05-07T09:22:23;9.43;;;5.40;;
77417;SDS011;66490;51.484;0.026;2023-05-07T09:25:08;9.43;;;4.95;;
77417;SDS011;66490;51.484;0.026;2023-05-07T09:27:52;8.18;;;4.70;;
77417;SDS011;66490;51.484;0.026;2023-05-07T09:30:36;9.25;;;4.63;;
77417;SDS011;66490;51.484;0.026;2023-05-07T09:33:20;11.70;;;5.78;;
77417;SDS011;66490;51.484;0.026;2023-05-07T09:36:05;10.60;;;5.87;;
77417;SDS011;66490;51.484;0.026;2023-05-07T09:38:50;8.43;;;4.90;;
77417;SDS011;66490;51.484;0.026;2023-05-07T09:41:42;9.07;;;4.75;;
77417;SDS011;66490;51.484;0.026;2023-05-07T09:44:36;10.07;;;5.60;;
77417;SDS011;66490;51.484;0.026;2023-05-07T09:47:28;10.07;;;6.18;;
77417;SDS011;66490;51.484;0.026;2023-05-07T09:50:25;8.10;;;5.20;;
77417;SDS011;66490;51.484;0.026;2023-05-07T09:53:13;7.80;;;4.40;;
77417;SDS011;66490;51.484;0.026;2023-05-07T09:55:58;8.00;;;4.28;;
77417;SDS011;66490;51.484;0.026;2023-05-07T09:58:42;7.93;;;4.68;;
77417;SDS011;66490;51.484;0.026;2023-05-07T10:01:27;8.13;;;4.85;;
77417;SDS011;66490;51.484;0.026;2023-05-07T10:04:11;9.80;;;5.07;;
77417;SDS011;66490;51.484;0.026;2023-05-07T10:06:55;10.55;;;5.28;;
77417;SDS011;66490;51.484;0.026;2023-05-07T10:09:40;9.02;;;4.78;;
77417;SDS011;66490;51.484;0.026;2023-05-07T10:12:26;8.95;;;4.70;;
77417;SDS011;66490;51.484;0.026;2023-05-07T10:15:11;8.13;;;5.07;;
77417;SDS011;66490;51.484;0.026;2023-05-07T10:17:55;8.13;;;4.77;;
77417;SDS011;66490;51.484;0.026;2023-05-07T10:20:40;9.40;;;5.75;;
77417;SDS011;66490;51.484;0.026;2023-05-07T10:23:26;9.15;;;5.22;;
77417;SDS011;66490;51.484;0.026;2023-05-07T10:26:11;7.95;;;5.15;;
77417;SDS011;66490;51.484;0.026;2023-05-07T10:29:00;8.40;;;5.28;;
77417;SDS011;66490;51.484;0.026;2023-05-07T10:31:50;8.60;;;4.67;;
77417;SDS011;66490;51.484;0.026;2023-05-07T10:34:40;9.45;;;6.05;;
77417;SDS011;66490;51.484;0.026;2023-05-07T10:37:26;7.95;;;4.90;;
77417;SDS011;66490;51.484;0.026;2023-05-07T10:40:20;9.20;;;5.20;;
77417;SDS011;66490;51.484;0.026;2023-05-07T10:43:05;7.22;;;4.53;;
77417;SDS011;66490;51.484;0.026;2023-05-07T11:01:09;7.73;;;4.43;;
77417;SDS011;66490;51.484;0.026;2023-05-07T11:04:13;7.50;;;4.30;;
77417;SDS011;66490;51.484;0.026;2023-05-07T11:09:56;6.97;;;4.05;;
77417;SDS011;66490;51.484;0.026;2023-05-07T11:15:36;7.03;;;3.70;;
77417;SDS011;66490;51.484;0.026;2023-05-07T11:18:20;6.95;;;4.30;;
77417;SDS011;66490;51.484;0.026;2023-05-07T11:21:04;7.15;;;4.72;;
77417;SDS011;66490;51.484;0.026;2023-05-07T11:26:46;9.45;;;4.65;;
77417;SDS011;66490;51.484;0.026;2023-05-07T11:29:36;7.57;;;3.90;;
77417;SDS011;66490;51.484;0.026;2023-05-07T11:32:27;6.63;;;3.92;;
77417;SDS011;66490;51.484;0.026;2023-05-07T11:35:11;8.93;;;4.47;;
77417;SDS011;66490;51.484;0.026;2023-05-07T11:37:59;8.43;;;4.25;;
77417;SDS011;66490;51.484;0.026;2023-05-07T11:40:55;6.65;;;4.03;;
77417;SDS011;66490;51.484;0.026;2023-05-07T11:43:53;6.60;;;3.70;;
77417;SDS011;66490;51.484;0.026;2023-05-07T11:46:37;7.13;;;3.78;;
77417;SDS011;66490;51.484;0.026;2023-05-07T11:49:26;6.35;;;3.63;;
77417;SDS011;66490;51.484;0.026;2023-05-07T11:52:10;5.97;;;3.47;;
77417;SDS011;66490;51.484;0.026;2023-05-07T11:54:55;7.03;;;3.58;;
77417;SDS011;66490;51.484;0.026;2023-05-07T11:57:39;5.20;;;2.80;;
77417;SDS011;66490;51.484;0.026;2023-05-07T12:00:24;5.43;;;2.65;;
77417;SDS011;66490;51.484;0.026;2023-05-07T12:03:08;5.50;;;3.08;;
77417;SDS011;66490;51.484;0.026;2023-05-07T12:06:05;5.35;;;2.63;;
77417;SDS011;66490;51.484;0.026;2023-05-07T12:08:49;5.32;;;2.90;;
77417;SDS011;66490;51.484;0.026;2023-05-07T12:11:34;7.17;;;2.87;;
77417;SDS011;66490;51.484;0.026;2023-05-07T12:14:18;6.50;;;3.28;;
77417;SDS011;66490;51.484;0.026;2023-05-07T12:17:02;5.93;;;3.72;;
77417;SDS011;66490;51.484;0.026;2023-05-07T12:19:47;6.20;;;3.03;;
77417;SDS011;66490;51.484;0.026;2023-05-07T12:22:31;6.03;;;3.35;;
77417;SDS011;66490;51.484;0.026;2023-05-07T12:25:17;6.60;;;4.10;;
77417;SDS011;66490;51.484;0.026;2023-05-07T12:28:02;5.30;;;2.97;;
77417;SDS011;66490;51.484;0.026;2023-05-07T12:30:54;5.80;;;3.60;;
77417;SDS011;66490;51.484;0.026;2023-05-07T12:33:38;5.43;;;3.22;;
77417;SDS011;66490;51.484;0.026;2023-05-07T12:36:26;6.47;;;4.18;;
77417;SDS011;66490;51.484;0.026;2023-05-07T12:39:20;5.50;;;3.43;;
77417;SDS011;66490;51.484;0.026;2023-05-07T12:42:04;6.03;;;2.88;;
77417;SDS011;66490;51.484;0.026;2023-05-07T12:44:48;6.43;;;4.00;;
77417;SDS011;66490;51.484;0.026;2023-05-07T12:47:32;6.38;;;4.43;;
77417;SDS011;66490;51.484;0.026;2023-05-07T12:50:16;5.93;;;3.47;;
77417;SDS011;66490;51.484;0.026;2023-05-07T12:53:05;5.47;;;2.70;;
77417;SDS011;66490;51.484;0.026;2023-05-07T12:55:59;4.28;;;2.45;;
77417;SDS011;66490;51.484;0.026;2023-05-07T12:58:43;7.50;;;3.72;;
77417;SDS011;66490;51.484;0.026;2023-05-07T13:01:33;5.53;;;2.97;;
77417;SDS011;66490;51.484;0.026;2023-05-07T13:04:18;9.75;;;3.58;;
77417;SDS011;66490;51.484;0.026;2023-05-07T13:07:02;5.73;;;2.97;;
77417;SDS011;66490;51.484;0.026;2023-05-07T13:09:46;5.93;;;3.17;;
77417;SDS011;66490;51.484;0.026;2023-05-07T13:12:31;6.13;;;3.40;;
77417;SDS011;66490;51.484;0.026;2023-05-07T13:15:15;5.80;;;3.08;;
77417;SDS011;66490;51.484;0.026;2023-05-07T13:18:00;5.82;;;3.30;;
77417;SDS011;66490;51.484;0.026;2023-05-07T13:20:44;6.00;;;3.17;;
77417;SDS011;66490;51.484;0.026;2023-05-07T13:23:28;5.35;;;2.88;;
77417;SDS011;66490;51.484;0.026;2023-05-07T13:26:13;5.50;;;2.80;;
77417;SDS011;66490;51.484;0.026;2023-05-07T13:28:57;4.93;;;3.10;;
77417;SDS011;66490;51.484;0.026;2023-05-07T13:31:41;5.85;;;3.33;;
77417;SDS011;66490;51.484;0.026;2023-05-07T13:34:27;6.10;;;2.83;;
77417;SDS011;66490;51.484;0.026;2023-05-07T13:37:12;6.00;;;3.28;;
77417;SDS011;66490;51.484;0.026;2023-05-07T13:39:56;8.43;;;4.53;;
77417;SDS011;66490;51.484;0.026;2023-05-07T13:42:40;6.30;;;3.25;;
77417;SDS011;66490;51.484;0.026;2023-05-07T13:45:25;5.43;;;3.03;;
77417;SDS011;66490;51.484;0.026;2023-05-07T13:48:09;5.60;;;3.70;;
77417;SDS011;66490;51.484;0.026;2023-05-07T13:50:53;5.75;;;3.40;;
77417;SDS011;66490;51.484;0.026;2023-05-07T13:53:37;7.97;;;5.63;;
77417;SDS011;66490;51.484;0.026;2023-05-07T13:56:21;4.32;;;2.55;;
77417;SDS011;66490;51.484;0.026;2023-05-07T13:59:05;5.57;;;2.90;;
77417;SDS011;66490;51.484;0.026;2023-05-07T14:01:49;7.57;;;3.57;;
77417;SDS011;66490;51.484;0.026;2023-05-07T14:04:33;5.85;;;3.42;;
77417;SDS011;66490;51.484;0.026;2023-05-07T14:07:17;5.45;;;3.30;;
77417;SDS011;66490;51.484;0.026;2023-05-07T14:10:01;5.15;;;2.58;;
77417;SDS011;66490;51.484;0.026;2023-05-07T14:12:45;5.97;;;2.58;;
77417;SDS011;66490;51.484;0.026;2023-05-07T14:15:29;4.43;;;2.77;;
77417;SDS011;66490;51.484;0.026;2023-05-07T14:18:13;5.05;;;2.70;;
77417;SDS011;66490;51.484;0.026;2023-05-07T14:20:57;4.40;;;2.45;;
77417;SDS011;66490;51.484;0.026;2023-05-07T14:23:41;4.50;;;2.13;;
77417;SDS011;66490;51.484;0.026;2023-05-07T14:26:33;5.38;;;2.55;;
77417;SDS011;66490;51.484;0.026;2023-05-07T14:29:32;5.00;;;2.40;;
77417;SDS011;66490;51.484;0.026;2023-05-07T14:32:17;4.72;;;2.03;;
77417;SDS011;66490;51.484;0.026;2023-05-07T14:35:02;3.78;;;2.42;;
77417;SDS011;66490;51.484;0.026;2023-05-07T14:37:56;4.05;;;2.35;;
77417;SDS011;66490;51.484;0.026;2023-05-07T14:40:46;3.78;;;2.20;;
77417;SDS011;66490;51.484;0.026;2023-05-07T14:46:36;3.75;;;2.20;;
77417;SDS011;66490;51.484;0.026;2023-05-07T14:49:24;3.25;;;2.13;;
77417;SDS011;66490;51.484;0.026;2023-05-07T14:52:14;4.07;;;2.05;;
77417;SDS011;66490;51.484;0.026;2023-05-07T14:55:04;4.20;;;2.35;;
77417;SDS011;66490;51.484;0.026;2023-05-07T14:57:51;3.67;;;2.30;;
77417;SDS011;66490;51.484;0.026;2023-05-07T15:00:35;3.95;;;1.88;;
77417;SDS011;66490;51.484;0.026;2023-05-07T15:03:26;3.60;;;2.25;;
77417;SDS011;66490;51.484;0.026;2023-05-07T15:06:13;3.38;;;1.95;;
77417;SDS011;66490;51.484;0.026;2023-05-07T15:09:07;4.75;;;2.90;;
77417;SDS011;66490;51.484;0.026;2023-05-07T15:11:53;4.00;;;2.37;;
77417;SDS011;66490;51.484;0.026;2023-05-07T15:14:46;3.60;;;2.17;;
77417;SDS011;66490;51.484;0.026;2023-05-07T15:17:39;4.47;;;2.55;;
77417;SDS011;66490;51.484;0.026;2023-05-07T15:20:26;4.35;;;2.47;;
77417;SDS011;66490;51.484;0.026;2023-05-07T15:23:10;4.75;;;2.67;;
77417;SDS011;66490;51.484;0.026;2023-05-07T15:26:02;4.40;;;2.23;;
77417;SDS011;66490;51.484;0.026;2023-05-07T15:28:46;3.95;;;2.17;;
77417;SDS011;66490;51.484;0.026;2023-05-07T15:31:35;3.50;;;2.05;;
77417;SDS011;66490;51.484;0.026;2023-05-07T15:34:21;4.47;;;2.13;;
77417;SDS011;66490;51.484;0.026;2023-05-07T15:37:05;5.15;;;2.40;;
77417;SDS011;66490;51.484;0.026;2023-05-07T15:39:58;5.40;;;2.43;;
77417;SDS011;66490;51.484;0.026;2023-05-07T15:42:55;4.07;;;1.90;;
77417;SDS011;66490;51.484;0.026;2023-05-07T15:45:42;4.03;;;2.20;;
77417;SDS011;66490;51.484;0.026;2023-05-07T15:51:20;3.78;;;2.17;;
77417;SDS011;66490;51.484;0.026;2023-05-07T15:54:08;4.90;;;2.13;;
77417;SDS011;66490;51.484;0.026;2023-05-07T15:57:00;4.47;;;2.50;;
77417;SDS011;66490;51.484;0.026;2023-05-07T15:59:44;4.97;;;2.58;;
77417;SDS011;66490;51.484;0.026;2023-05-07T16:02:29;3.63;;;2.25;;
77417;SDS011;66490;51.484;0.026;2023-05-07T16:05:18;6.05;;;2.80;;
77417;SDS011;66490;51.484;0.026;2023-05-07T16:08:02;5.03;;;2.10;;
77417;SDS011;66490;51.484;0.026;2023-05-07T16:10:47;5.88;;;1.65;;
77417;SDS011;66490;51.484;0.026;2023-05-07T16:13:31;5.55;;;2.42;;
77417;SDS011;66490;51.484;0.026;2023-05-07T16:16:15;4.05;;;1.70;;
77417;SDS011;66490;51.484;0.026;2023-05-07T16:18:59;3.35;;;1.92;;
77417;SDS011;66490;51.484;0.026;2023-05-07T16:21:43;5.60;;;2.20;;
77417;SDS011;66490;51.484;0.026;2023-05-07T16:24:27;3.92;;;1.73;;
77417;SDS011;66490;51.484;0.026;2023-05-07T16:27:11;4.65;;;2.40;;
77417;SDS011;66490;51.484;0.026;2023-05-07T16:29:55;4.25;;;1.88;;
77417;SDS011;66490;51.484;0.026;2023-05-07T16:32:39;6.47;;;2.40;;
77417;SDS011;66490;51.484;0.026;2023-05-07T16:35:23;2.90;;;1.43;;
77417;SDS011;66490;51.484;0.026;2023-05-07T16:38:07;4.38;;;1.98;;
77417;SDS011;66490;51.484;0.026;2023-05-07T16:40:53;3.65;;;1.65;;
77417;SDS011;66490;51.484;0.026;2023-05-07T16:43:37;4.10;;;1.63;;
77417;SDS011;66490;51.484;0.026;2023-05-07T16:46:21;6.10;;;2.78;;
77417;SDS011;66490;51.484;0.026;2023-05-07T16:49:04;3.43;;;2.13;;
77417;SDS011;66490;51.484;0.026;2023-05-07T16:51:48;3.70;;;1.98;;
77417;SDS011;66490;51.484;0.026;2023-05-07T16:54:34;3.25;;;1.73;;
77417;SDS011;66490;51.484;0.026;2023-05-07T16:57:18;3.97;;;1.63;;
77417;SDS011;66490;51.484;0.026;2023-05-07T17:00:02;4.10;;;1.60;;